createdAt,value
2023-06-20T00:00:42.655Z,302.00
2023-06-20T00:01:42.664Z,301.00
2023-06-20T00:02:42.789Z,303.00
2023-06-20T00:03:42.796Z,303.00
2023-06-20T00:04:42.766Z,301.00
2023-06-20T00:05:42.751Z,302.00
2023-06-20T00:06:42.769Z,303.00
2023-06-20T00:07:42.790Z,304.00
2023-06-20T00:08:42.826Z,303.00
2023-06-20T00:09:42.837Z,300.00
2023-06-20T00:10:42.860Z,301.00
2023-06-20T00:11:42.893Z,299.00
2023-06-20T00:12:42.900Z,300.00
2023-06-20T00:13:42.926Z,295.00
2023-06-20T00:14:42.968Z,299.00
2023-06-20T00:15:42.955Z,299.00
2023-06-20T00:16:42.976Z,300.00
2023-06-20T00:17:43.047Z,301.00
2023-06-20T00:18:43.010Z,300.00
2023-06-20T00:19:43.032Z,301.00
2023-06-20T00:20:43.065Z,301.00
2023-06-20T00:21:43.072Z,302.00
2023-06-20T00:22:43.102Z,298.00
2023-06-20T00:23:43.086Z,297.00
2023-06-20T00:24:43.116Z,298.00
2023-06-20T00:25:43.044Z,298.00
2023-06-20T00:26:43.049Z,297.00
2023-06-20T00:27:43.028Z,296.00
2023-06-20T00:28:43.037Z,298.00
2023-06-20T00:29:43.016Z,299.00
2023-06-20T00:30:42.996Z,300.00
2023-06-20T00:31:42.965Z,302.00
2023-06-20T00:32:42.993Z,303.00
2023-06-20T00:33:42.966Z,303.00
2023-06-20T00:34:42.930Z,301.00
2023-06-20T00:35:42.902Z,298.00
2023-06-20T00:36:42.889Z,297.00
2023-06-20T00:37:42.871Z,297.00
2023-06-20T00:38:42.863Z,299.00
2023-06-20T00:39:42.840Z,297.00
2023-06-20T00:40:42.851Z,296.00
2023-06-20T00:41:42.868Z,297.00
2023-06-20T00:42:42.883Z,295.00
2023-06-20T00:43:42.887Z,296.00
2023-06-20T00:44:42.912Z,298.00
2023-06-20T00:45:42.945Z,299.00
2023-06-20T00:46:42.916Z,298.00
2023-06-20T00:47:42.991Z,298.00
2023-06-20T00:48:42.912Z,298.00
2023-06-20T00:49:42.930Z,298.00
2023-06-20T00:50:42.930Z,297.00
2023-06-20T00:51:42.951Z,297.00
2023-06-20T00:52:42.958Z,297.00
2023-06-20T00:53:42.951Z,296.00
2023-06-20T00:54:42.959Z,295.00
2023-06-20T00:55:42.967Z,295.00
2023-06-20T00:56:42.957Z,296.00
2023-06-20T00:57:42.959Z,298.00
2023-06-20T00:58:42.968Z,300.00
2023-06-20T00:59:42.974Z,300.00
2023-06-20T01:00:42.989Z,301.00
2023-06-20T01:01:43.056Z,303.00
2023-06-20T01:02:43.066Z,305.00
2023-06-20T01:03:43.071Z,302.00
2023-06-20T01:04:42.998Z,301.00
2023-06-20T01:05:43.001Z,301.00
2023-06-20T01:06:43.019Z,301.00
2023-06-20T01:07:43.026Z,300.00
2023-06-20T01:08:43.016Z,299.00
2023-06-20T01:09:43.016Z,299.00
2023-06-20T01:10:43.020Z,301.00
2023-06-20T01:11:43.009Z,302.00
2023-06-20T01:12:43.012Z,305.00
2023-06-20T01:13:43.008Z,309.00
2023-06-20T01:14:43.024Z,308.00
2023-06-20T01:15:43.044Z,306.00
2023-06-20T01:16:43.018Z,306.00
2023-06-20T01:17:43.093Z,305.00
2023-06-20T01:18:43.020Z,305.00
2023-06-20T01:19:43.038Z,304.00
2023-06-20T01:20:43.038Z,304.00
2023-06-20T01:21:43.037Z,305.00
2023-06-20T01:22:43.045Z,304.00
2023-06-20T01:23:43.068Z,304.00
2023-06-20T01:24:43.128Z,304.00
2023-06-20T01:25:43.076Z,304.00
2023-06-20T01:26:43.069Z,306.00
2023-06-20T01:27:43.067Z,303.00
2023-06-20T01:28:43.082Z,305.00
2023-06-20T01:29:43.083Z,308.00
2023-06-20T01:30:43.095Z,309.00
2023-06-20T01:31:43.088Z,309.00
2023-06-20T01:32:43.136Z,307.00
2023-06-20T01:33:43.103Z,307.00
2023-06-20T01:34:43.128Z,307.00
2023-06-20T01:35:43.118Z,307.00
2023-06-20T01:36:43.126Z,307.00
2023-06-20T01:37:43.122Z,308.00
2023-06-20T01:38:43.136Z,309.00
2023-06-20T01:39:43.118Z,310.00
2023-06-20T01:40:43.098Z,307.00
2023-06-20T01:41:43.068Z,309.00
2023-06-20T01:42:43.064Z,309.00
2023-06-20T01:43:43.035Z,308.00
2023-06-20T01:44:43.035Z,309.00
2023-06-20T01:45:42.996Z,308.00
2023-06-20T01:46:43.074Z,310.00
2023-06-20T01:47:43.029Z,309.00
2023-06-20T01:48:42.935Z,310.00
2023-06-20T01:49:42.907Z,312.00
2023-06-20T01:50:42.919Z,312.00
2023-06-20T01:51:42.867Z,313.00
2023-06-20T01:52:42.845Z,313.00
2023-06-20T01:53:42.840Z,312.00
2023-06-20T01:54:42.802Z,308.00
2023-06-20T01:55:42.784Z,309.00
2023-06-20T01:56:42.768Z,307.00
2023-06-20T01:57:42.746Z,308.00
2023-06-20T01:58:42.764Z,306.00
2023-06-20T01:59:42.765Z,310.00
2023-06-20T02:00:42.681Z,313.00
2023-06-20T02:01:42.655Z,312.00
2023-06-20T02:02:42.719Z,312.00
2023-06-20T02:03:42.741Z,313.00
2023-06-20T02:04:42.681Z,313.00
2023-06-20T02:05:42.684Z,313.00
2023-06-20T02:06:42.685Z,313.00
2023-06-20T02:07:42.683Z,312.00
2023-06-20T02:08:42.698Z,311.00
2023-06-20T02:09:42.688Z,312.00
2023-06-20T02:10:42.706Z,312.00
2023-06-20T02:11:42.696Z,314.00
2023-06-20T02:12:42.718Z,314.00
2023-06-20T02:13:42.704Z,314.00
2023-06-20T02:14:42.733Z,314.00
2023-06-20T02:15:42.734Z,312.00
2023-06-20T02:16:42.750Z,310.00
2023-06-20T02:17:42.779Z,312.00
2023-06-20T02:18:42.731Z,311.00
2023-06-20T02:19:42.758Z,313.00
2023-06-20T02:20:42.770Z,314.00
2023-06-20T02:21:42.752Z,313.00
2023-06-20T02:22:42.772Z,315.00
2023-06-20T02:23:42.775Z,316.00
2023-06-20T02:24:42.861Z,314.00
2023-06-20T02:25:42.793Z,313.00
2023-06-20T02:26:42.791Z,311.00
2023-06-20T02:27:42.805Z,309.00
2023-06-20T02:28:42.844Z,311.00
2023-06-20T02:29:42.827Z,310.00
2023-06-20T02:30:42.825Z,304.00
2023-06-20T02:31:42.900Z,305.00
2023-06-20T02:32:42.865Z,305.00
2023-06-20T02:33:42.835Z,305.00
2023-06-20T02:34:42.847Z,305.00
2023-06-20T02:35:42.849Z,305.00
2023-06-20T02:36:42.871Z,304.00
2023-06-20T02:37:42.871Z,304.00
2023-06-20T02:38:42.891Z,306.00
2023-06-20T02:39:42.883Z,306.00
2023-06-20T02:40:42.910Z,308.00
2023-06-20T02:41:42.936Z,308.00
2023-06-20T02:42:45.957Z,309.00
2023-06-20T02:43:42.943Z,311.00
2023-06-20T02:44:42.898Z,313.00
2023-06-20T02:45:42.867Z,313.00
2023-06-20T02:46:42.812Z,314.00
2023-06-20T02:47:42.813Z,313.00
2023-06-20T02:48:42.785Z,314.00
2023-06-20T02:49:42.760Z,314.00
2023-06-20T02:50:42.784Z,314.00
2023-06-20T02:51:42.715Z,314.00
2023-06-20T02:52:42.692Z,318.00
2023-06-20T02:53:42.671Z,315.00
2023-06-20T02:54:42.656Z,314.00
2023-06-20T02:55:42.643Z,312.00
2023-06-20T02:56:42.619Z,312.00
2023-06-20T02:57:42.610Z,313.00
2023-06-20T02:58:42.577Z,313.00
2023-06-20T02:59:42.564Z,315.00
2023-06-20T03:00:42.534Z,318.00
2023-06-20T03:01:42.569Z,317.00
2023-06-20T03:02:42.604Z,315.00
2023-06-20T03:03:42.568Z,313.00
2023-06-20T03:04:42.477Z,314.00
2023-06-20T03:05:42.448Z,315.00
2023-06-20T03:06:42.429Z,316.00
2023-06-20T03:07:42.406Z,317.00
2023-06-20T03:08:42.411Z,320.00
2023-06-20T03:09:42.375Z,320.00
2023-06-20T03:10:42.380Z,319.00
2023-06-20T03:11:42.350Z,319.00
2023-06-20T03:12:42.354Z,317.00
2023-06-20T03:13:42.329Z,320.00
2023-06-20T03:14:42.318Z,321.00
2023-06-20T03:15:42.323Z,321.00
2023-06-20T03:16:42.337Z,320.00
2023-06-20T03:17:42.268Z,323.00
2023-06-20T03:18:42.225Z,321.00
2023-06-20T03:19:42.200Z,323.00
2023-06-20T03:20:42.194Z,320.00
2023-06-20T03:21:42.157Z,322.00
2023-06-20T03:22:42.131Z,321.00
2023-06-20T03:23:42.118Z,319.00
2023-06-20T03:24:42.236Z,319.00
2023-06-20T03:25:42.080Z,319.00
2023-06-20T03:26:42.089Z,319.00
2023-06-20T03:27:42.054Z,320.00
2023-06-20T03:28:42.012Z,318.00
2023-06-20T03:29:41.998Z,319.00
2023-06-20T03:30:41.967Z,320.00
2023-06-20T03:31:41.971Z,319.00
2023-06-20T03:32:41.981Z,321.00
2023-06-20T03:33:41.924Z,322.00
2023-06-20T03:34:41.896Z,323.00
2023-06-20T03:35:41.866Z,323.00
2023-06-20T03:36:41.855Z,323.00
2023-06-20T03:37:41.836Z,323.00
2023-06-20T03:38:41.872Z,324.00
2023-06-20T03:39:41.909Z,324.00
2023-06-20T03:40:41.882Z,324.00
2023-06-20T03:41:41.874Z,326.00
2023-06-20T03:42:41.915Z,327.00
2023-06-20T03:43:41.896Z,328.00
2023-06-20T03:44:41.916Z,328.00
2023-06-20T03:45:41.909Z,325.00
2023-06-20T03:46:41.977Z,324.00
2023-06-20T03:47:41.942Z,325.00
2023-06-20T03:48:41.939Z,324.00
2023-06-20T03:49:44.680Z,324.00
2023-06-20T03:50:41.936Z,325.00
2023-06-20T03:51:41.891Z,325.00
2023-06-20T03:52:41.909Z,322.00
2023-06-20T03:53:41.857Z,324.00
2023-06-20T03:54:41.882Z,327.00
2023-06-20T03:55:41.905Z,325.00
2023-06-20T03:56:41.815Z,328.00
2023-06-20T03:57:41.876Z,326.00
2023-06-20T03:58:41.887Z,323.00
2023-06-20T03:59:41.822Z,323.00
2023-06-20T04:00:41.736Z,325.00
2023-06-20T04:01:41.704Z,325.00
2023-06-20T04:02:41.710Z,329.00
2023-06-20T04:03:41.662Z,328.00
2023-06-20T04:04:41.648Z,327.00
2023-06-20T04:05:41.629Z,325.00
2023-06-20T04:06:41.665Z,326.00
2023-06-20T04:07:41.577Z,324.00
2023-06-20T04:08:41.599Z,324.00
2023-06-20T04:09:41.989Z,323.00
2023-06-20T04:10:41.635Z,326.00
2023-06-20T04:11:41.522Z,327.00
2023-06-20T04:12:41.593Z,328.00
2023-06-20T04:13:41.488Z,327.00
2023-06-20T04:14:41.524Z,327.00
2023-06-20T04:15:41.474Z,324.00
2023-06-20T04:16:41.402Z,323.00
2023-06-20T04:17:41.386Z,325.00
2023-06-20T04:18:41.360Z,326.00
2023-06-20T04:19:41.320Z,330.00
2023-06-20T04:20:41.299Z,328.00
2023-06-20T04:21:41.280Z,331.00
2023-06-20T04:22:41.263Z,329.00
2023-06-20T04:23:41.230Z,328.00
2023-06-20T04:24:41.287Z,329.00
2023-06-20T04:25:41.200Z,328.00
2023-06-20T04:26:41.178Z,325.00
2023-06-20T04:27:41.168Z,324.00
2023-06-20T04:28:41.201Z,323.00
2023-06-20T04:29:41.138Z,325.00
2023-06-20T04:30:41.089Z,323.00
2023-06-20T04:31:41.070Z,327.00
2023-06-20T04:32:41.090Z,325.00
2023-06-20T04:33:41.020Z,322.00
2023-06-20T04:34:40.985Z,321.00
2023-06-20T04:35:40.972Z,320.00
2023-06-20T04:36:40.924Z,322.00
2023-06-20T04:37:40.913Z,323.00
2023-06-20T04:38:40.894Z,321.00
2023-06-20T04:39:40.874Z,321.00
2023-06-20T04:40:40.847Z,320.00
2023-06-20T04:41:40.841Z,320.00
2023-06-20T04:42:40.813Z,321.00
2023-06-20T04:43:40.815Z,322.00
2023-06-20T04:44:40.790Z,323.00
2023-06-20T04:45:40.782Z,324.00
2023-06-20T04:46:40.746Z,322.00
2023-06-20T04:47:40.824Z,321.00
2023-06-20T04:48:40.818Z,322.00
2023-06-20T04:49:40.694Z,322.00
2023-06-20T04:50:40.668Z,319.00
2023-06-20T04:51:40.652Z,319.00
2023-06-20T04:52:40.621Z,319.00
2023-06-20T04:53:40.603Z,323.00
2023-06-20T04:54:40.600Z,323.00
2023-06-20T04:55:40.554Z,327.00
2023-06-20T04:56:40.538Z,325.00
2023-06-20T04:57:40.524Z,324.00
2023-06-20T04:58:40.498Z,325.00
2023-06-20T04:59:40.474Z,329.00
2023-06-20T05:00:40.442Z,359.00
2023-06-20T05:01:40.487Z,350.00
2023-06-20T05:02:40.460Z,344.00
2023-06-20T05:03:40.437Z,339.00
2023-06-20T05:04:40.373Z,337.00
2023-06-20T05:05:40.339Z,337.00
2023-06-20T05:06:40.348Z,335.00
2023-06-20T05:07:40.309Z,333.00
2023-06-20T05:08:40.281Z,331.00
2023-06-20T05:09:40.272Z,330.00
2023-06-20T05:10:40.242Z,330.00
2023-06-20T05:11:40.221Z,332.00
2023-06-20T05:12:40.204Z,333.00
2023-06-20T05:13:40.197Z,335.00
2023-06-20T05:14:40.174Z,336.00
2023-06-20T05:15:40.151Z,334.00
2023-06-20T05:16:40.156Z,333.00
2023-06-20T05:17:40.143Z,332.00
2023-06-20T05:18:40.221Z,332.00
2023-06-20T05:19:40.088Z,330.00
2023-06-20T05:20:40.058Z,336.00
2023-06-20T05:21:40.024Z,340.00
2023-06-20T05:22:40.014Z,342.00
2023-06-20T05:23:40.027Z,343.00
2023-06-20T05:24:40.107Z,343.00
2023-06-20T05:25:39.982Z,342.00
2023-06-20T05:26:39.987Z,340.00
2023-06-20T05:27:39.943Z,338.00
2023-06-20T05:28:39.947Z,338.00
2023-06-20T05:29:39.910Z,337.00
2023-06-20T05:30:39.874Z,347.00
2023-06-20T05:31:39.938Z,346.00
2023-06-20T05:32:39.984Z,353.00
2023-06-20T05:33:39.893Z,449.00
2023-06-20T05:34:39.839Z,495.00
2023-06-20T05:35:39.809Z,465.00
2023-06-20T05:36:39.806Z,464.00
2023-06-20T05:37:39.779Z,472.00
2023-06-20T05:38:39.790Z,492.00
2023-06-20T05:39:39.752Z,496.00
2023-06-20T05:40:39.748Z,501.00
2023-06-20T05:41:39.701Z,503.00
2023-06-20T05:42:39.689Z,506.00
2023-06-20T05:43:39.641Z,549.00
2023-06-20T05:44:39.622Z,570.00
2023-06-20T05:45:40.822Z,576.00
2023-06-20T05:46:39.671Z,687.00
2023-06-20T05:47:39.636Z,646.00
2023-06-20T05:48:39.571Z,683.00
2023-06-20T05:49:39.507Z,684.00
2023-06-20T05:50:39.463Z,683.00
2023-06-20T05:51:39.433Z,669.00
2023-06-20T05:52:39.441Z,623.00
2023-06-20T05:53:39.406Z,620.00
2023-06-20T05:54:40.020Z,617.00
2023-06-20T05:55:39.347Z,599.00
2023-06-20T05:56:39.345Z,588.00
2023-06-20T05:57:39.311Z,580.00
2023-06-20T05:58:39.373Z,578.00
2023-06-20T05:59:39.275Z,571.00
2023-06-20T06:00:39.206Z,563.00
2023-06-20T06:01:39.248Z,558.00
2023-06-20T06:02:39.209Z,549.00
2023-06-20T06:03:39.384Z,544.00
2023-06-20T06:04:39.381Z,534.00
2023-06-20T06:05:39.126Z,521.00
2023-06-20T06:06:39.101Z,511.00
2023-06-20T06:07:39.052Z,505.00
2023-06-20T06:08:39.027Z,499.00
2023-06-20T06:09:38.983Z,496.00
2023-06-20T06:10:38.958Z,494.00
2023-06-20T06:11:38.925Z,491.00
2023-06-20T06:12:38.894Z,488.00
2023-06-20T06:13:38.874Z,485.00
2023-06-20T06:14:38.916Z,483.00
2023-06-20T06:15:40.402Z,476.00
2023-06-20T06:16:39.858Z,469.00
2023-06-20T06:17:38.833Z,467.00
2023-06-20T06:18:38.883Z,464.00
2023-06-20T06:19:38.777Z,465.00
2023-06-20T06:20:38.702Z,461.00
2023-06-20T06:21:38.758Z,458.00
2023-06-20T06:22:38.657Z,456.00
2023-06-20T06:23:38.633Z,453.00
2023-06-20T06:25:57.489Z,432.00
2023-06-20T06:26:57.464Z,436.00
2023-06-20T06:27:57.483Z,434.00
2023-06-20T06:28:57.428Z,428.00
2023-06-20T06:29:57.435Z,431.00
2023-06-20T06:30:57.432Z,431.00
2023-06-20T06:31:57.431Z,431.00
2023-06-20T06:32:57.503Z,433.00
2023-06-20T06:33:57.365Z,431.00
2023-06-20T06:34:57.376Z,428.00
2023-06-20T06:35:57.382Z,427.00
2023-06-20T06:36:57.446Z,426.00
2023-06-20T06:37:57.417Z,421.00
2023-06-20T06:38:57.391Z,417.00
2023-06-20T06:39:57.670Z,416.00
2023-06-20T06:40:57.344Z,417.00
2023-06-20T06:41:57.355Z,417.00
2023-06-20T06:42:57.317Z,414.00
2023-06-20T06:43:57.303Z,412.00
2023-06-20T06:44:57.399Z,414.00
2023-06-20T06:45:57.284Z,413.00
2023-06-20T06:46:57.265Z,413.00
2023-06-20T06:47:57.377Z,411.00
2023-06-20T06:48:57.295Z,415.00
2023-06-20T06:49:57.329Z,417.00
2023-06-20T06:50:57.359Z,419.00
2023-06-20T06:51:57.518Z,422.00
2023-06-20T06:52:57.436Z,426.00
2023-06-20T06:53:57.513Z,428.00
2023-06-20T06:54:57.544Z,433.00
2023-06-20T06:55:57.520Z,433.00
2023-06-20T06:56:57.536Z,433.00
2023-06-20T06:57:57.515Z,435.00
2023-06-20T06:58:57.488Z,436.00
2023-06-20T06:59:57.467Z,440.00
2023-06-20T07:00:57.450Z,445.00
2023-06-20T07:01:57.502Z,452.00
2023-06-20T07:02:57.466Z,458.00
2023-06-20T07:03:57.729Z,652.00
2023-06-20T07:04:57.369Z,644.00
2023-06-20T07:05:57.352Z,650.00
2023-06-20T07:06:57.360Z,658.00
2023-06-20T07:07:57.305Z,660.00
2023-06-20T07:08:57.288Z,677.00
2023-06-20T07:09:57.244Z,689.00
2023-06-20T07:10:57.290Z,724.00
2023-06-20T07:11:57.280Z,751.00
2023-06-20T07:12:57.312Z,766.00
2023-06-20T07:13:57.329Z,780.00
2023-06-20T07:14:57.353Z,792.00
2023-06-20T07:15:57.444Z,822.00
2023-06-20T07:17:05.184Z,848.00
2023-06-20T07:17:58.401Z,863.00
2023-06-20T07:18:57.319Z,877.00
2023-06-20T07:19:57.298Z,905.00
2023-06-20T07:20:57.249Z,912.00
2023-06-20T07:21:57.225Z,921.00
2023-06-20T07:22:57.190Z,946.00
2023-06-20T07:23:57.314Z,957.00
2023-06-20T07:24:57.793Z,968.00
2023-06-20T07:25:57.135Z,978.00
2023-06-20T07:26:57.130Z,990.00
2023-06-20T07:27:57.101Z,1002.00
2023-06-20T07:28:57.063Z,1010.00
2023-06-20T07:29:57.156Z,1022.00
2023-06-20T07:30:57.051Z,1040.00
2023-06-20T07:31:57.026Z,1062.00
2023-06-20T07:32:56.997Z,1093.00
2023-06-20T07:33:56.857Z,1111.00
2023-06-20T07:34:56.864Z,1116.00
2023-06-20T07:35:56.809Z,1118.00
2023-06-20T07:36:56.797Z,1119.00
2023-06-20T07:37:56.763Z,1138.00
2023-06-20T07:38:56.738Z,1147.00
2023-06-20T07:39:56.713Z,1231.00
2023-06-20T07:40:56.668Z,1248.00
2023-06-20T07:41:56.650Z,1208.00
2023-06-20T07:42:56.655Z,1169.00
2023-06-20T07:43:56.613Z,1130.00
2023-06-20T07:44:56.576Z,1109.00
2023-06-20T07:45:56.594Z,1170.00
2023-06-20T07:46:56.507Z,1126.00
2023-06-20T07:47:56.486Z,1107.00
2023-06-20T07:48:56.435Z,1100.00
2023-06-20T07:49:56.556Z,1089.00
2023-06-20T07:50:56.417Z,1083.00
2023-06-20T07:51:56.413Z,1086.00
2023-06-20T07:52:56.305Z,1076.00
2023-06-20T07:53:57.205Z,1072.00
2023-06-20T07:54:56.247Z,1072.00
2023-06-20T07:55:56.338Z,1026.00
2023-06-20T07:56:56.175Z,1018.00
2023-06-20T07:57:56.217Z,1011.00
2023-06-20T07:58:56.110Z,1007.00
2023-06-20T07:59:56.027Z,1002.00
2023-06-20T08:00:56.080Z,995.00
2023-06-20T08:01:55.996Z,959.00
2023-06-20T08:02:56.111Z,892.00
2023-06-20T08:03:56.020Z,683.00
2023-06-20T08:04:55.898Z,687.00
2023-06-20T08:05:56.089Z,576.00
2023-06-20T08:06:55.830Z,616.00
2023-06-20T08:07:55.797Z,710.00
2023-06-20T08:08:55.771Z,747.00
2023-06-20T08:09:55.735Z,783.00
2023-06-20T08:10:55.704Z,787.00
2023-06-20T08:11:55.675Z,797.00
2023-06-20T08:12:55.644Z,808.00
2023-06-20T08:13:55.609Z,813.00
2023-06-20T08:14:55.658Z,815.00
2023-06-20T08:15:55.529Z,812.00
2023-06-20T08:16:55.572Z,811.00
2023-06-20T08:17:55.525Z,813.00
2023-06-20T08:18:55.424Z,814.00
2023-06-20T08:19:55.579Z,813.00
2023-06-20T08:20:55.342Z,799.00
2023-06-20T08:21:55.310Z,794.00
2023-06-20T08:22:55.606Z,790.00
2023-06-20T08:23:55.305Z,794.00
2023-06-20T08:24:55.228Z,789.00
2023-06-20T08:25:55.182Z,781.00
2023-06-20T08:26:55.134Z,779.00
2023-06-20T08:28:06.371Z,785.00
2023-06-20T08:28:56.111Z,786.00
2023-06-20T08:29:55.024Z,782.00
2023-06-20T08:30:55.036Z,780.00
2023-06-20T08:31:54.946Z,794.00
2023-06-20T08:32:54.902Z,791.00
2023-06-20T08:33:54.849Z,788.00
2023-06-20T08:34:57.031Z,778.00
2023-06-20T08:35:54.983Z,775.00
2023-06-20T08:36:55.000Z,655.00
2023-06-20T08:37:55.046Z,661.00
2023-06-20T08:38:55.018Z,670.00
2023-06-20T08:39:54.986Z,672.00
2023-06-20T08:40:55.063Z,572.00
2023-06-20T08:41:54.922Z,607.00
2023-06-20T08:42:54.899Z,612.00
2023-06-20T08:43:54.871Z,619.00
2023-06-20T08:44:57.773Z,509.00
2023-06-20T08:45:54.930Z,515.00
2023-06-20T08:46:54.796Z,504.00
2023-06-20T08:47:54.732Z,501.00
2023-06-20T08:48:54.666Z,632.00
2023-06-20T08:49:54.637Z,743.00
2023-06-20T08:50:54.607Z,731.00
2023-06-20T08:51:54.567Z,727.00
2023-06-20T08:52:54.560Z,718.00
2023-06-20T08:53:54.859Z,666.00
2023-06-20T08:54:54.539Z,651.00
2023-06-20T08:55:54.454Z,649.00
2023-06-20T08:56:54.375Z,646.00
2023-06-20T08:57:54.356Z,643.00
2023-06-20T08:58:54.330Z,640.00
2023-06-20T08:59:54.410Z,623.00
2023-06-20T09:00:54.259Z,609.00
2023-06-20T09:01:54.209Z,595.00
2023-06-20T09:02:54.312Z,577.00
2023-06-20T09:03:54.120Z,565.00
2023-06-20T09:04:54.112Z,554.00
2023-06-20T09:05:54.038Z,548.00
2023-06-20T09:06:54.010Z,542.00
2023-06-20T09:07:53.974Z,541.00
2023-06-20T09:08:53.923Z,538.00
2023-06-20T09:09:53.886Z,532.00
2023-06-20T09:10:53.841Z,520.00
2023-06-20T09:11:53.808Z,509.00
2023-06-20T09:12:53.790Z,498.00
2023-06-20T09:13:53.746Z,495.00
2023-06-20T09:14:53.757Z,489.00
2023-06-20T09:15:53.679Z,482.00
2023-06-20T09:16:53.660Z,477.00
2023-06-20T09:17:53.622Z,471.00
2023-06-20T09:18:53.555Z,467.00
2023-06-20T09:19:54.899Z,464.00
2023-06-20T09:20:53.487Z,451.00
2023-06-20T09:22:04.307Z,444.00
2023-06-20T09:22:54.414Z,443.00
2023-06-20T09:23:53.369Z,436.00
2023-06-20T09:24:53.354Z,434.00
2023-06-20T09:25:53.336Z,425.00
2023-06-20T09:26:53.273Z,422.00
2023-06-20T09:27:53.231Z,420.00
2023-06-20T09:28:53.199Z,419.00
2023-06-20T09:29:53.241Z,419.00
2023-06-20T09:30:53.151Z,422.00
2023-06-20T09:31:53.067Z,417.00
2023-06-20T09:32:53.102Z,416.00
2023-06-20T09:33:52.996Z,416.00
2023-06-20T09:34:52.970Z,413.00
2023-06-20T09:35:52.938Z,415.00
2023-06-20T09:36:52.965Z,416.00
2023-06-20T09:37:52.858Z,415.00
2023-06-20T09:38:52.805Z,410.00
2023-06-20T09:39:52.810Z,401.00
2023-06-20T09:40:52.736Z,397.00
2023-06-20T09:41:52.728Z,398.00
2023-06-20T09:42:52.764Z,462.00
2023-06-20T09:43:52.627Z,572.00
2023-06-20T09:44:52.601Z,583.00
2023-06-20T09:45:52.596Z,731.00
2023-06-20T09:46:52.587Z,749.00
2023-06-20T09:47:52.605Z,664.00
2023-06-20T09:48:52.480Z,640.00
2023-06-20T09:49:52.435Z,638.00
2023-06-20T09:50:52.401Z,640.00
2023-06-20T09:51:52.369Z,635.00
2023-06-20T09:52:52.385Z,625.00
2023-06-20T09:53:52.309Z,613.00
2023-06-20T09:54:52.273Z,600.00
2023-06-20T09:55:52.242Z,543.00
2023-06-20T09:56:52.207Z,540.00
2023-06-20T09:57:52.179Z,534.00
2023-06-20T09:58:52.146Z,535.00
2023-06-20T09:59:52.096Z,579.00
2023-06-20T10:00:52.077Z,564.00
2023-06-20T10:01:52.462Z,540.00
2023-06-20T10:02:52.263Z,536.00
2023-06-20T10:03:52.038Z,533.00
2023-06-20T10:04:52.082Z,533.00
2023-06-20T10:05:51.894Z,532.00
2023-06-20T10:06:51.851Z,552.00
2023-06-20T10:07:51.817Z,562.00
2023-06-20T10:08:51.796Z,557.00
2023-06-20T10:09:51.766Z,548.00
2023-06-20T10:10:51.758Z,543.00
2023-06-20T10:11:51.685Z,539.00
2023-06-20T10:12:51.689Z,537.00
2023-06-20T10:13:51.638Z,537.00
2023-06-20T10:14:51.633Z,538.00
2023-06-20T10:15:51.556Z,539.00
2023-06-20T10:16:51.524Z,539.00
2023-06-20T10:17:51.654Z,534.00
2023-06-20T10:18:51.495Z,607.00
2023-06-20T10:19:51.565Z,544.00
2023-06-20T10:20:51.389Z,527.00
2023-06-20T10:21:51.383Z,525.00
2023-06-20T10:22:51.326Z,522.00
2023-06-20T10:23:51.380Z,525.00
2023-06-20T10:24:51.377Z,523.00
2023-06-20T10:25:51.234Z,520.00
2023-06-20T10:26:51.244Z,519.00
2023-06-20T10:27:51.160Z,516.00
2023-06-20T10:28:51.347Z,513.00
2023-06-20T10:29:51.110Z,510.00
2023-06-20T10:30:51.108Z,506.00
2023-06-20T10:31:51.177Z,504.00
2023-06-20T10:32:51.139Z,503.00
2023-06-20T10:33:51.039Z,501.00
2023-06-20T10:34:51.046Z,497.00
2023-06-20T10:35:51.762Z,494.00
2023-06-20T10:36:51.014Z,492.00
2023-06-20T10:37:51.020Z,488.00
2023-06-20T10:38:50.944Z,487.00
2023-06-20T10:39:50.970Z,486.00
2023-06-20T10:40:50.925Z,486.00
2023-06-20T10:41:50.922Z,482.00
2023-06-20T10:42:50.880Z,479.00
2023-06-20T10:43:50.885Z,480.00
2023-06-20T10:44:50.856Z,480.00
2023-06-20T10:45:50.899Z,479.00
2023-06-20T10:46:50.820Z,474.00
2023-06-20T10:47:50.883Z,471.00
2023-06-20T10:48:50.792Z,466.00
2023-06-20T10:49:51.250Z,465.00
2023-06-20T10:50:50.781Z,464.00
2023-06-20T10:51:50.802Z,463.00
2023-06-20T10:52:50.728Z,460.00
2023-06-20T10:53:50.699Z,462.00
2023-06-20T10:54:50.679Z,462.00
2023-06-20T10:55:50.716Z,460.00
2023-06-20T10:56:50.594Z,458.00
2023-06-20T10:57:50.574Z,454.00
2023-06-20T10:58:50.531Z,453.00
2023-06-20T10:59:50.776Z,448.00
2023-06-20T11:00:50.472Z,448.00
2023-06-20T11:01:50.446Z,446.00
2023-06-20T11:02:50.574Z,444.00
2023-06-20T11:03:50.406Z,442.00
2023-06-20T11:04:50.339Z,440.00
2023-06-20T11:05:50.308Z,437.00
2023-06-20T11:06:50.295Z,437.00
2023-06-20T11:07:52.142Z,437.00
2023-06-20T11:08:50.245Z,437.00
2023-06-20T11:09:50.192Z,433.00
2023-06-20T11:10:50.153Z,432.00
2023-06-20T11:11:50.152Z,430.00
2023-06-20T11:12:50.102Z,427.00
2023-06-20T11:13:50.099Z,425.00
2023-06-20T11:14:50.022Z,424.00
2023-06-20T11:15:50.029Z,422.00
2023-06-20T11:16:50.014Z,422.00
2023-06-20T11:17:50.849Z,423.00
2023-06-20T11:18:50.113Z,422.00
2023-06-20T11:19:49.863Z,418.00
2023-06-20T11:20:49.801Z,413.00
2023-06-20T11:21:49.755Z,411.00
2023-06-20T11:22:49.728Z,414.00
2023-06-20T11:23:49.653Z,414.00
2023-06-20T11:24:49.925Z,413.00
2023-06-20T11:25:49.588Z,412.00
2023-06-20T11:26:49.656Z,413.00
2023-06-20T11:27:49.690Z,414.00
2023-06-20T11:28:52.567Z,411.00
2023-06-20T11:29:50.829Z,411.00
2023-06-20T11:30:49.455Z,409.00
2023-06-20T11:31:49.367Z,408.00
2023-06-20T11:32:49.430Z,405.00
2023-06-20T11:33:49.305Z,403.00
2023-06-20T11:34:49.268Z,403.00
2023-06-20T11:35:49.213Z,403.00
2023-06-20T11:36:49.162Z,405.00
2023-06-20T11:37:49.129Z,402.00
2023-06-20T11:38:49.110Z,400.00
2023-06-20T11:39:49.084Z,402.00
2023-06-20T11:40:49.036Z,403.00
2023-06-20T11:41:49.001Z,404.00
2023-06-20T11:42:48.972Z,404.00
2023-06-20T11:43:48.901Z,401.00
2023-06-20T11:44:48.864Z,399.00
2023-06-20T11:45:48.840Z,400.00
2023-06-20T11:46:48.945Z,400.00
2023-06-20T11:47:48.811Z,399.00
2023-06-20T11:48:48.710Z,399.00
2023-06-20T11:49:48.729Z,396.00
2023-06-20T11:50:48.638Z,398.00
2023-06-20T11:51:48.599Z,400.00
2023-06-20T11:52:48.559Z,399.00
2023-06-20T11:53:48.497Z,399.00
2023-06-20T11:54:48.473Z,396.00
2023-06-20T11:55:48.436Z,393.00
2023-06-20T11:56:48.371Z,391.00
2023-06-20T11:57:48.347Z,392.00
2023-06-20T11:58:48.299Z,390.00
2023-06-20T11:59:48.274Z,388.00
2023-06-20T12:00:48.229Z,382.00
2023-06-20T12:01:48.235Z,379.00
2023-06-20T12:02:48.157Z,379.00
2023-06-20T12:03:48.133Z,382.00
2023-06-20T12:04:48.078Z,384.00
2023-06-20T12:05:48.062Z,384.00
2023-06-20T12:06:48.009Z,383.00
2023-06-20T12:07:47.966Z,380.00
2023-06-20T12:08:47.920Z,379.00
2023-06-20T12:09:47.873Z,379.00
2023-06-20T12:10:47.882Z,378.00
2023-06-20T12:11:47.805Z,379.00
2023-06-20T12:12:47.824Z,379.00
2023-06-20T12:13:47.746Z,379.00
2023-06-20T12:14:47.726Z,381.00
2023-06-20T12:15:47.666Z,379.00
2023-06-20T12:16:47.661Z,380.00
2023-06-20T12:17:47.694Z,376.00
2023-06-20T12:18:47.560Z,372.00
2023-06-20T12:19:47.519Z,372.00
2023-06-20T12:20:59.054Z,373.00
2023-06-20T12:21:48.504Z,375.00
2023-06-20T12:22:47.424Z,375.00
2023-06-20T12:23:47.378Z,374.00
2023-06-20T12:24:47.437Z,372.00
2023-06-20T12:25:47.320Z,371.00
2023-06-20T12:26:47.280Z,371.00
2023-06-20T12:27:47.243Z,370.00
2023-06-20T12:28:47.187Z,370.00